Bradford, Indiana
Current Conditions -  °F | °C
As of 1:56 AM on Monday 29 Dec 2014 (Local Time) from KSDF Reporting Station
Overcast Overcast  
Wind Chill: 30°   Ceiling: 2300
Heat Index: 35°   Visibility: 10mi
Dew Point: 29°   Wind: 6mph
Humidity: 78%   Direction: 10°N
Pressure: 30.21"   Gusts: NA
Location:  38.37°N, 86.06°W
Report Text: KSDF 290656Z 01005KT 10SM OVC023 02/M02 A3021 RMK AO2 SLP234 T00171017
Loading
Personal Weather Stations






























Interactive Weather Map New forecast layout! Learn more

10-Day Weather Forecast

Advertisements
Track Severe Weather on mobile